Time;durP1;ratioP1;P1;durP2;ratioP2;P2;SDS_P1;SDS_P2;PMS_P1;PMS_P2;Temp;Humidity;BMP_temperature;BMP_pressure;BME280_temperature;BME280_humidity;BME280_pressure;Samples;Min_cycle;Max_cycle;Signal;HPM_P1;HPM_P2
2022/06/08 00:02:04;;;;;;;43.00;10.55;;;;;;;14.21;49.94;99535.47;5046786;28;20048;-70
2022/06/08 00:04:30;;;;;;;47.08;8.80;;;;;;;14.24;49.81;99537.63;5046490;28;20136;-69
2022/06/08 00:06:57;;;;;;;38.65;8.25;;;;;;;14.24;49.27;99532.13;5063668;28;20075;-69
2022/06/08 00:09:23;;;;;;;49.22;7.93;;;;;;;14.17;48.97;99513.28;5063195;28;20049;-69
2022/06/08 00:11:49;;;;;;;43.13;7.70;;;;;;;14.30;48.40;99528.16;5045705;28;20040;-70
2022/06/08 00:14:15;;;;;;;40.90;7.72;;;;;;;14.39;47.75;99531.78;5045219;28;20049;-70
2022/06/08 00:16:42;;;;;;;54.17;6.50;;;;;;;14.43;47.06;99530.06;5045057;28;20404;-69
2022/06/08 00:19:09;;;;;;;55.92;7.75;;;;;;;14.47;47.56;99530.25;5048008;28;20055;-70
2022/06/08 00:21:36;;;;;;;38.50;6.97;;;;;;;14.50;47.12;99526.09;5064760;28;20053;-70
2022/06/08 00:24:02;;;;;;;40.10;8.52;;;;;;;14.58;46.98;99534.44;5045339;28;20423;-70
2022/06/08 00:26:28;;;;;;;42.25;7.55;;;;;;;14.50;47.00;99509.59;5064792;28;20599;-70
2022/06/08 00:28:54;;;;;;;35.17;7.88;;;;;;;14.61;47.70;99535.75;5064465;28;20079;-70
2022/06/08 00:31:21;;;;;;;47.10;7.93;;;;;;;14.62;47.67;99537.38;5047085;28;20159;-69
2022/06/08 00:33:49;;;;;;;41.53;7.53;;;;;;;14.64;47.25;99539.81;5030222;28;20148;-69
2022/06/08 00:36:17;;;;;;;44.05;8.13;;;;;;;14.60;48.17;99532.19;5024047;28;20563;-72
2022/06/08 00:38:43;;;;;;;44.85;8.68;;;;;;;14.61;48.00;99533.00;5024659;28;20049;-73
2022/06/08 00:41:26;;;;;;;43.85;6.93;;;;;;;14.66;47.04;99534.81;5024082;28;20049;-73
2022/06/08 00:43:54;;;;;;;37.15;6.75;;;;;;;14.68;47.43;99529.84;5022644;28;20050;-73
2022/06/08 00:46:20;;;;;;;31.25;6.28;;;;;;;14.71;47.02;99534.72;5022850;28;20477;-73
2022/06/08 00:48:50;;;;;;;40.85;6.93;;;;;;;14.70;46.61;99536.66;5025070;28;20041;-72
2022/06/08 00:51:18;;;;;;;31.85;7.00;;;;;;;14.74;46.64;99531.38;5021710;28;20145;-73
2022/06/08 00:53:51;;;;;;;37.13;6.78;;;;;;;14.72;46.70;99522.63;5024698;28;20061;-72
2022/06/08 00:56:22;;;;;;;50.17;7.35;;;;;;;14.77;46.71;99525.25;5024066;28;20611;-73
2022/06/08 00:58:48;;;;;;;43.90;8.32;;;;;;;14.79;46.94;99523.00;5024196;28;20041;-72
2022/06/08 01:01:14;;;;;;;27.85;6.57;;;;;;;14.81;47.14;99523.50;5022593;28;20041;-72
2022/06/08 01:03:41;;;;;;;37.97;6.13;;;;;;;14.86;47.42;99520.66;5022737;28;20056;-73
2022/06/08 01:06:16;;;;;;;42.07;10.47;;;;;;;14.86;48.82;99520.66;4988580;28;20436;-72
2022/06/08 01:08:47;;;;;;;34.92;7.50;;;;;;;14.84;48.71;99513.81;5024293;28;20132;-72
2022/06/08 01:11:26;;;;;;;37.65;8.65;;;;;;;14.83;49.16;99518.53;5020280;28;20059;-74
2022/06/08 01:13:59;;;;;;;34.67;6.55;;;;;;;14.85;48.76;99524.53;5021898;28;20459;-73
2022/06/08 01:16:26;;;;;;;35.92;6.95;;;;;;;14.84;48.29;99519.31;5023107;28;20045;-73
2022/06/08 01:18:52;;;;;;;47.83;7.13;;;;;;;14.86;48.45;99519.81;5021342;28;20489;-72
2022/06/08 01:21:45;;;;;;;32.65;6.45;;;;;;;14.85;48.21;99531.94;5008052;28;20520;-72
2022/06/08 01:24:19;;;;;;;36.05;6.53;;;;;;;14.88;48.09;99517.56;5023621;28;20168;-73
2022/06/08 01:27:12;;;;;;;42.45;7.93;;;;;;;14.87;48.68;99513.19;5026067;28;20467;-73
2022/06/08 01:29:46;;;;;;;36.47;7.05;;;;;;;14.82;49.69;99522.38;5011472;28;20050;-72
2022/06/08 01:32:19;;;;;;;43.78;8.43;;;;;;;14.82;49.87;99522.38;5025800;28;20048;-73
2022/06/08 01:35:09;;;;;;;46.95;10.73;;;;;;;14.84;50.86;99525.66;5008813;28;20436;-73
2022/06/08 01:37:46;;;;;;;31.42;6.40;;;;;;;14.84;49.93;99522.06;5008644;28;20368;-72
2022/06/08 01:41:00;;;;;;;42.33;8.70;;;;;;;14.91;49.73;99527.16;5007498;28;20081;-72
2022/06/08 01:43:41;;;;;;;28.83;6.47;;;;;;;14.88;48.66;99531.31;4977501;28;20046;-74
2022/06/08 01:46:20;;;;;;;27.75;7.53;;;;;;;14.97;48.90;99537.72;5025842;28;20540;-73
2022/06/08 01:49:07;;;;;;;28.50;7.43;;;;;;;14.99;48.95;99529.97;5025681;28;20094;-73
2022/06/08 01:51:49;;;;;;;38.92;6.43;;;;;;;14.94;48.42;99529.28;5026296;28;20060;-69
2022/06/08 01:54:31;;;;;;;44.60;7.95;;;;;;;14.94;48.89;99538.38;5026733;28;20052;-69
2022/06/08 01:57:07;;;;;;;34.08;8.02;;;;;;;14.84;49.54;99528.41;5008918;28;20122;-74
2022/06/08 01:59:43;;;;;;;31.23;8.10;;;;;;;14.84;49.39;99533.09;5024002;28;20073;-73
2022/06/08 02:02:16;;;;;;;44.80;6.97;;;;;;;14.84;49.20;99533.09;5023291;28;20045;-73
2022/06/08 02:04:49;;;;;;;21.42;5.80;;;;;;;14.83;48.92;99532.28;5024865;28;20041;-73
2022/06/08 02:07:24;;;;;;;33.55;7.10;;;;;;;14.81;49.41;99530.94;5027486;28;20057;-72
2022/06/08 02:09:58;;;;;;;24.45;5.85;;;;;;;14.87;48.18;99546.22;5025662;28;20042;-72
2022/06/08 02:12:27;;;;;;;29.02;5.70;;;;;;;14.85;48.02;99540.22;5024983;28;20049;-72
2022/06/08 02:14:58;;;;;;;41.05;7.25;;;;;;;14.85;48.64;99540.22;5024172;28;20072;-73
2022/06/08 02:17:32;;;;;;;31.77;8.07;;;;;;;14.89;49.59;99538.47;5021810;28;20428;-73
2022/06/08 02:20:12;;;;;;;32.55;7.55;;;;;;;14.91;49.76;99543.66;5025870;28;20046;-73
2022/06/08 02:22:42;;;;;;;33.60;8.05;;;;;;;14.96;50.48;99549.03;5008550;28;20501;-69
2022/06/08 02:25:19;;;;;;;34.97;6.80;;;;;;;15.00;49.77;99548.13;5025417;28;20405;-69
2022/06/08 02:27:49;;;;;;;31.08;7.03;;;;;;;15.02;49.68;99550.56;5026821;28;20568;-69
2022/06/08 02:30:21;;;;;;;30.10;7.05;;;;;;;15.03;49.84;99552.19;5029767;28;20520;-69
2022/06/08 02:35:41;;;;;;;38.45;6.68;;;;;;;15.05;50.47;99554.63;5044807;28;20041;-73
2022/06/08 02:38:10;;;;;;;41.72;8.20;;;;;;;15.02;51.03;99547.81;5028116;28;20060;-73
2022/06/08 02:40:45;;;;;;;31.05;7.57;;;;;;;14.98;51.50;99550.38;5045807;28;20144;-72
2022/06/08 02:43:17;;;;;;;44.78;7.20;;;;;;;14.95;51.54;99555.66;5046966;28;20508;-72
2022/06/08 02:45:49;;;;;;;37.83;7.00;;;;;;;15.02;51.57;99545.88;5043805;28;20055;-72
2022/06/08 02:48:16;;;;;;;30.08;6.18;;;;;;;15.11;50.90;99550.63;5044427;28;20546;-73
2022/06/08 02:50:51;;;;;;;24.42;5.93;;;;;;;15.16;50.18;99556.84;5045318;28;20099;-72
2022/06/08 02:53:52;;;;;;;19.95;5.55;;;;;;;15.19;50.17;99558.16;5045498;28;20604;-69
2022/06/08 02:56:27;;;;;;;16.90;4.05;;;;;;;15.13;49.13;99548.38;5049326;28;20048;-73
2022/06/08 02:58:59;;;;;;;17.83;4.72;;;;;;;15.13;48.81;99559.41;5030060;28;20051;-72
2022/06/08 03:01:32;;;;;;;22.60;4.10;;;;;;;15.12;48.38;99563.28;5043990;28;20041;-73
2022/06/08 03:04:05;;;;;;;20.25;4.43;;;;;;;15.14;48.08;99566.53;5010706;28;20045;-72
2022/06/08 03:06:35;;;;;;;21.60;4.95;;;;;;;15.17;48.33;99560.41;5042211;28;20056;-73
2022/06/08 03:09:05;;;;;;;19.15;4.28;;;;;;;15.33;47.50;99574.63;5028069;28;20041;-72
2022/06/08 03:11:38;;;;;;;21.10;5.32;;;;;;;15.48;46.81;99567.13;5045134;28;20114;-73
2022/06/08 03:14:07;;;;;;;22.73;4.18;;;;;;;15.47;46.87;99557.22;5043701;28;20138;-74
2022/06/08 03:16:39;;;;;;;27.90;4.57;;;;;;;15.48;46.89;99556.91;5031624;28;20405;-69
2022/06/08 03:19:09;;;;;;;28.75;4.97;;;;;;;15.46;46.98;99559.16;5044652;28;20529;-70
2022/06/08 03:21:37;;;;;;;23.75;5.18;;;;;;;15.43;47.18;99562.53;5043104;28;20083;-69
2022/06/08 03:24:05;;;;;;;31.90;5.93;;;;;;;15.52;47.17;99563.41;5043576;28;20053;-70
2022/06/08 03:26:41;;;;;;;28.17;4.57;;;;;;;15.63;47.22;99565.91;5044256;28;20084;-69
2022/06/08 03:29:08;;;;;;;29.60;5.55;;;;;;;15.62;46.89;99564.28;5029248;28;20145;-70
2022/06/08 03:31:34;;;;;;;23.60;4.53;;;;;;;15.59;47.05;99563.78;5043808;28;20052;-70
2022/06/08 03:34:01;;;;;;;26.50;5.20;;;;;;;15.58;47.12;99567.69;5028173;28;20060;-70
2022/06/08 03:36:28;;;;;;;27.92;5.95;;;;;;;15.69;46.60;99578.44;5022145;28;20512;-69
2022/06/08 03:38:54;;;;;;;17.42;4.40;;;;;;;15.84;46.36;99578.06;5023964;28;20148;-70
2022/06/08 03:41:22;;;;;;;19.05;4.43;;;;;;;15.98;45.93;99579.91;5025103;28;20416;-70
2022/06/08 03:43:49;;;;;;;19.45;4.20;;;;;;;16.01;45.55;99574.59;5023628;28;20049;-73
2022/06/08 03:46:18;;;;;;;21.35;4.32;;;;;;;16.07;45.46;99579.97;5023022;28;20081;-73
2022/06/08 03:48:45;;;;;;;22.23;4.68;;;;;;;16.14;45.19;99572.84;5022020;28;20136;-73
2022/06/08 03:51:15;;;;;;;22.67;4.53;;;;;;;16.23;44.90;99572.09;5025362;28;20045;-73
2022/06/08 03:53:45;;;;;;;22.30;4.80;;;;;;;16.20;44.87;99565.25;5026870;28;20049;-73
2022/06/08 03:56:15;;;;;;;20.38;4.57;;;;;;;16.35;44.49;99577.81;5024098;28;20069;-73
2022/06/08 03:58:42;;;;;;;17.42;4.13;;;;;;;16.42;44.60;99578.16;5023115;28;20045;-73
2022/06/08 04:01:16;;;;;;;20.60;4.20;;;;;;;16.47;44.42;99582.72;5027145;28;20048;-70
2022/06/08 04:03:47;;;;;;;34.83;4.45;;;;;;;16.54;44.45;99576.75;5022810;28;20123;-70
2022/06/08 04:06:14;;;;;;;14.43;3.88;;;;;;;16.58;44.14;99580.47;5023707;28;20068;-69
2022/06/08 04:08:39;;;;;;;19.35;3.65;;;;;;;16.63;44.25;99585.88;4998907;28;20069;-70
2022/06/08 04:11:07;;;;;;;20.83;3.40;;;;;;;16.65;43.80;99588.28;4999075;28;20064;-69
2022/06/08 04:13:34;;;;;;;18.57;4.03;;;;;;;16.68;43.89;99591.22;5013247;28;20069;-69
2022/06/08 04:16:08;;;;;;;28.40;4.22;;;;;;;16.72;43.68;99592.19;5014705;28;20513;-73
2022/06/08 04:18:40;;;;;;;15.40;4.00;;;;;;;16.80;43.80;99596.13;5018763;28;20424;-73
2022/06/08 04:21:09;;;;;;;33.30;4.07;;;;;;;16.85;43.60;99595.94;5012130;28;20049;-73
2022/06/08 04:23:46;;;;;;;18.20;3.53;;;;;;;16.87;43.88;99596.47;5015148;28;20066;-73
2022/06/08 04:26:14;;;;;;;21.02;3.72;;;;;;;16.91;43.58;99596.63;5013810;28;20050;-73
2022/06/08 04:28:42;;;;;;;19.35;3.83;;;;;;;16.96;43.44;99595.66;5009633;28;20041;-73
2022/06/08 04:31:14;;;;;;;15.45;4.07;;;;;;;16.94;42.67;99593.22;5020774;28;20049;-73
2022/06/08 04:33:45;;;;;;;13.70;3.75;;;;;;;16.96;42.91;99588.19;5021516;28;20060;-71
2022/06/08 04:36:14;;;;;;;19.42;3.90;;;;;;;16.89;42.59;99570.47;5060112;28;20040;-72
2022/06/08 04:38:41;;;;;;;15.38;3.95;;;;;;;17.00;42.90;99591.97;5041713;28;20040;-73
2022/06/08 04:41:08;;;;;;;17.33;3.80;;;;;;;17.05;42.80;99587.41;5043152;28;20099;-73
2022/06/08 04:43:36;;;;;;;;;;;;;;;17.10;42.78;99585.31;5043937;28;20708;-73
2022/06/08 04:46:02;;;;;;;14.73;3.80;;;;;;;17.17;42.78;99584.00;5043741;28;19925;-74
2022/06/08 04:48:31;;;;;;;16.15;3.47;;;;;;;17.22;42.12;99581.09;5043382;28;20041;-74
2022/06/08 04:50:59;;;;;;;15.40;3.50;;;;;;;17.24;41.49;99579.59;5042868;28;20044;-73
2022/06/08 04:53:27;;;;;;;13.57;3.47;;;;;;;17.27;41.13;99580.91;5037964;28;20045;-74
2022/06/08 04:55:53;;;;;;;14.63;3.60;;;;;;;17.31;41.09;99578.31;5046361;28;20056;-73
2022/06/08 04:58:20;;;;;;;14.68;3.38;;;;;;;17.34;40.73;99569.38;5043809;28;20466;-73
2022/06/08 05:00:47;;;;;;;16.70;3.33;;;;;;;17.43;40.16;99573.75;5043416;28;20045;-73
2022/06/08 05:03:13;;;;;;;11.25;2.85;;;;;;;17.51;40.47;99574.09;5044051;28;20048;-73
2022/06/08 05:05:41;;;;;;;8.35;2.78;;;;;;;17.55;40.68;99573.06;5043299;28;20061;-73
2022/06/08 05:08:12;;;;;;;9.35;2.75;;;;;;;17.57;39.87;99579.13;5044231;28;20072;-73
2022/06/08 05:10:42;;;;;;;10.70;3.20;;;;;;;17.63;39.72;99573.41;5045839;28;20450;-74
2022/06/08 05:13:13;;;;;;;9.48;2.95;;;;;;;17.66;39.97;99576.34;5042045;28;20052;-73
2022/06/08 05:15:42;;;;;;;10.07;3.22;;;;;;;17.71;39.92;99578.09;5042023;28;20538;-69
2022/06/08 05:18:10;;;;;;;18.90;3.22;;;;;;;17.79;39.59;99591.09;5047928;28;20052;-70
2022/06/08 05:20:38;;;;;;;12.88;3.17;;;;;;;17.83;39.27;99585.72;5052963;28;20040;-70
2022/06/08 05:23:08;;;;;;;8.88;2.80;;;;;;;17.84;38.46;99577.09;5030704;28;20051;-69
2022/06/08 05:25:38;;;;;;;12.60;2.72;;;;;;;17.92;38.35;99586.50;5065951;28;20063;-69
2022/06/08 05:28:06;;;;;;;16.85;2.85;;;;;;;17.98;38.76;99581.63;5051384;28;20041;-69
2022/06/08 05:30:37;;;;;;;14.02;2.33;;;;;;;17.97;38.16;99583.56;5046212;28;20037;-70
2022/06/08 05:33:05;;;;;;;20.30;3.05;;;;;;;18.01;37.86;99592.00;5044891;28;20072;-70
2022/06/08 05:35:32;;;;;;;12.95;2.40;;;;;;;18.06;37.57;99597.41;5027823;28;20119;-69
2022/06/08 05:38:00;;;;;;;13.73;2.70;;;;;;;18.11;37.41;99591.69;5021946;28;20532;-69
2022/06/08 05:40:32;;;;;;;13.95;3.40;;;;;;;18.13;37.61;99592.16;4993028;28;20606;-70
2022/06/08 05:43:01;;;;;;;14.38;2.70;;;;;;;18.13;37.36;99589.41;4655834;28;10000332;-70
2022/06/08 05:45:30;;;;;;;14.68;2.78;;;;;;;18.19;36.81;99601.09;5021659;28;20488;-70
2022/06/08 05:47:56;;;;;;;14.18;2.65;;;;;;;18.20;36.93;99605.50;5018485;28;20049;-70
2022/06/08 05:50:24;;;;;;;13.75;3.13;;;;;;;18.22;36.84;99600.44;5031160;28;20045;-70
2022/06/08 05:52:51;;;;;;;12.77;3.00;;;;;;;18.23;37.09;99609.56;5017196;28;20517;-70
2022/06/08 05:55:18;;;;;;;15.77;2.85;;;;;;;18.20;37.35;99594.41;4978862;28;20048;-70
2022/06/08 05:57:46;;;;;;;8.95;2.78;;;;;;;18.24;37.04;99600.13;4999260;28;20465;-69
2022/06/08 06:00:16;;;;;;;15.95;2.90;;;;;;;18.25;37.10;99601.72;4999085;28;20053;-70
2022/06/08 06:02:42;;;;;;;12.43;2.50;;;;;;;18.33;36.83;99609.16;5012193;28;20045;-70
2022/06/08 06:05:13;;;;;;;10.40;2.30;;;;;;;18.39;36.68;99607.88;5019824;28;20049;-70
2022/06/08 06:07:40;;;;;;;15.88;2.58;;;;;;;18.39;36.63;99607.88;5021255;28;20140;-69
2022/06/08 06:10:32;;;;;;;11.60;2.58;;;;;;;18.39;36.75;99613.41;5006424;28;20045;-70
2022/06/08 06:12:59;;;;;;;15.75;2.85;;;;;;;18.41;37.36;99605.56;5025655;28;20053;-69
2022/06/08 06:15:38;;;;;;;10.18;2.58;;;;;;;18.45;37.33;99611.25;5028568;28;20558;-69
2022/06/08 06:18:06;;;;;;;16.17;2.58;;;;;;;18.47;37.65;99608.16;5017706;28;20042;-69
2022/06/08 06:20:34;;;;;;;11.13;2.90;;;;;;;18.54;37.29;99613.97;5000912;28;20037;-69
2022/06/08 06:23:18;;;;;;;10.88;2.70;;;;;;;18.77;37.31;99613.69;5026263;28;20084;-70
2022/06/08 06:25:51;;;;;;;17.98;3.15;;;;;;;19.02;37.24;99617.47;5024842;28;20076;-70
2022/06/08 06:28:52;;;;;;;13.70;2.80;;;;;;;19.23;37.12;99619.47;4984829;28;20096;-70
2022/06/08 06:31:47;;;;;;;23.08;3.25;;;;;;;19.46;36.23;99621.88;5019981;28;20432;-70
2022/06/08 06:34:22;;;;;;;23.75;2.95;;;;;;;19.62;35.41;99599.88;5027789;28;20135;-70
2022/06/08 06:36:53;;;;;;;9.05;2.45;;;;;;;19.80;35.43;99623.50;5027871;28;20059;-70
2022/06/08 06:39:22;;;;;;;11.07;2.70;;;;;;;19.91;35.16;99629.44;5027292;28;20140;-70
2022/06/08 06:41:51;;;;;;;8.25;2.58;;;;;;;20.02;34.90;99615.97;5027913;28;20455;-70
2022/06/08 06:44:21;;;;;;;11.57;3.72;;;;;;;20.09;34.20;99618.19;5028525;28;20530;-70
2022/06/08 06:47:14;;;;;;;12.30;2.50;;;;;;;20.00;34.06;99609.94;5026592;28;20554;-69
2022/06/08 06:49:53;;;;;;;9.63;2.58;;;;;;;20.13;33.65;99619.09;5029927;28;20050;-70
2022/06/08 06:52:19;;;;;;;9.70;2.17;;;;;;;20.22;33.65;99605.94;5029168;28;20054;-70
2022/06/08 06:54:47;;;;;;;16.33;2.70;;;;;;;20.39;32.83;99615.22;5028314;28;20597;-70
2022/06/08 06:57:13;;;;;;;9.38;2.25;;;;;;;20.48;32.53;99610.38;5026681;28;20540;-70
2022/06/08 06:59:40;;;;;;;18.02;2.78;;;;;;;20.53;32.72;99612.91;5028650;28;20504;-70
2022/06/08 07:02:11;;;;;;;11.00;2.03;;;;;;;20.61;32.65;99613.94;5027277;28;20053;-70
2022/06/08 07:04:39;;;;;;;8.43;2.53;;;;;;;20.70;32.41;99608.28;4990068;28;20045;-70
2022/06/08 07:07:06;;;;;;;8.15;2.20;;;;;;;20.83;31.43;99607.13;5007836;28;20057;-70
2022/06/08 07:09:33;;;;;;;7.80;2.00;;;;;;;20.92;31.69;99609.78;5011142;28;20050;-70
2022/06/08 07:11:59;;;;;;;11.40;2.35;;;;;;;20.99;31.80;99613.94;5007914;28;20085;-70
2022/06/08 07:14:30;;;;;;;12.15;2.10;;;;;;;21.02;31.66;99618.81;5025836;28;20648;-70
2022/06/08 07:17:00;;;;;;;10.15;2.63;;;;;;;21.04;31.13;99620.06;5011327;28;20056;-69
2022/06/08 07:19:30;;;;;;;10.27;2.17;;;;;;;21.13;31.02;99624.69;5026190;28;20044;-70
2022/06/08 07:21:58;;;;;;;8.82;2.10;;;;;;;21.26;30.68;99620.72;5027375;28;20052;-70
2022/06/08 07:24:30;;;;;;;5.82;1.92;;;;;;;21.34;30.63;99627.31;5025587;28;20065;-70
2022/06/08 07:26:57;;;;;;;9.88;2.00;;;;;;;21.38;30.69;99617.09;5025360;28;20045;-70
2022/06/08 07:29:23;;;;;;;13.77;2.20;;;;;;;21.47;30.65;99628.06;5026066;28;20057;-70
2022/06/08 07:31:49;;;;;;;10.30;2.05;;;;;;;21.60;30.15;99607.41;5011383;28;20100;-70
2022/06/08 07:34:15;;;;;;;18.27;2.60;;;;;;;21.73;29.70;99618.50;5061893;28;20114;-70
2022/06/08 07:36:44;;;;;;;11.43;2.00;;;;;;;21.78;29.53;99621.84;5049621;28;20074;-70
2022/06/08 07:39:14;;;;;;;15.57;2.53;;;;;;;21.90;28.88;99620.13;5049293;28;20058;-70
2022/06/08 07:41:40;;;;;;;11.63;2.72;;;;;;;22.01;28.85;99620.41;5048288;28;20055;-70
2022/06/08 07:44:06;;;;;;;11.18;2.35;;;;;;;22.18;28.40;99616.50;5066594;28;20055;-70
2022/06/08 07:46:32;;;;;;;5.95;1.90;;;;;;;22.17;28.52;99615.72;5033048;28;20053;-71
2022/06/08 07:51:43;;;;;;;6.85;1.98;;;;;;;22.28;28.22;99615.97;5047963;28;20044;-70
2022/06/08 07:54:09;;;;;;;11.10;2.17;;;;;;;22.39;28.04;99616.25;5066743;28;20071;-70
2022/06/08 07:56:37;;;;;;;18.23;2.13;;;;;;;22.54;27.82;99614.63;5047493;28;20040;-70
2022/06/08 07:59:03;;;;;;;6.13;2.10;;;;;;;22.50;27.50;99609.00;5049672;28;20486;-70
2022/06/08 08:01:30;;;;;;;7.47;1.73;;;;;;;22.62;27.43;99613.66;5068064;28;20102;-70
2022/06/08 08:03:56;;;;;;;8.52;1.90;;;;;;;22.79;26.62;99612.47;5065967;28;20172;-70
2022/06/08 08:06:22;;;;;;;4.68;1.83;;;;;;;22.93;26.53;99616.72;5068988;28;20511;-70
2022/06/08 08:08:49;;;;;;;6.20;1.80;;;;;;;23.13;26.39;99606.41;5049053;28;20255;-70
2022/06/08 08:11:15;;;;;;;9.15;2.00;;;;;;;23.42;26.48;99623.00;5049238;28;20040;-70
2022/06/08 08:13:42;;;;;;;5.82;1.70;;;;;;;23.85;25.55;99609.09;5066352;28;20044;-69
2022/06/08 08:16:08;;;;;;;14.38;2.08;;;;;;;24.21;24.96;99616.16;5030470;28;20060;-70
2022/06/08 08:18:34;;;;;;;11.45;2.10;;;;;;;24.50;24.70;99601.84;5063902;28;20036;-70
2022/06/08 08:21:01;;;;;;;10.10;2.13;;;;;;;24.81;24.55;99613.09;5049577;28;20068;-69
2022/06/08 08:23:27;;;;;;;13.43;2.38;;;;;;;24.92;24.06;99603.72;5078506;28;20101;-70
2022/06/08 08:25:53;;;;;;;9.18;1.92;;;;;;;24.94;23.73;99611.72;5076494;28;20135;-70
2022/06/08 08:28:19;;;;;;;11.38;2.63;;;;;;;25.15;23.91;99607.63;5045433;28;20112;-69
2022/06/08 08:30:48;;;;;;;8.98;2.05;;;;;;;25.38;23.78;99604.72;5065029;28;20495;-73
2022/06/08 08:33:14;;;;;;;8.85;2.08;;;;;;;25.48;23.78;99600.47;5026855;28;20061;-73
2022/06/08 08:35:42;;;;;;;6.13;2.08;;;;;;;25.54;23.99;99600.94;5043651;28;20048;-73
2022/06/08 08:38:09;;;;;;;13.25;2.00;;;;;;;25.82;23.70;99600.44;5045353;28;20569;-73
2022/06/08 08:40:48;;;;;;;7.82;2.00;;;;;;;26.27;21.91;99599.69;5043304;28;20352;-70
2022/06/08 08:43:20;;;;;;;6.13;1.90;;;;;;;26.65;21.23;99593.97;5042119;28;20136;-74
2022/06/08 08:46:06;;;;;;;6.57;2.10;;;;;;;26.60;20.83;99589.53;5046289;28;20076;-73
2022/06/08 08:48:44;;;;;;;8.80;2.00;;;;;;;26.75;20.98;99593.22;5046166;28;20052;-73
2022/06/08 08:51:16;;;;;;;10.65;2.90;;;;;;;26.69;21.76;99595.59;5046471;28;20052;-73
2022/06/08 08:53:55;;;;;;;9.88;2.25;;;;;;;27.07;21.10;99589.03;5047108;28;20210;-73
2022/06/08 08:56:33;;;;;;;9.02;2.10;;;;;;;27.23;20.61;99580.28;5030876;28;20139;-72
2022/06/08 08:59:00;;;;;;;15.68;2.45;;;;;;;27.48;20.05;99585.19;5042088;28;20470;-73
2022/06/08 09:01:31;;;;;;;16.50;3.50;;;;;;;27.50;19.86;99588.41;5044660;28;20530;-73
2022/06/08 09:04:05;;;;;;;7.85;1.92;;;;;;;27.79;19.65;99588.53;5015919;28;20443;-73
2022/06/08 09:06:33;;;;;;;10.35;2.00;;;;;;;28.09;18.51;99571.28;5043069;28;20056;-73
2022/06/08 09:09:15;;;;;;;12.50;2.22;;;;;;;28.47;18.18;99592.63;5045891;28;20064;-73
2022/06/08 09:11:43;;;;;;;5.88;1.85;;;;;;;28.54;18.60;99584.16;5044353;28;20136;-73
2022/06/08 09:14:13;;;;;;;7.10;2.20;;;;;;;28.38;18.85;99588.19;5045357;28;20139;-74
2022/06/08 09:16:43;;;;;;;11.43;2.50;;;;;;;28.67;18.27;99590.19;5043232;28;20053;-74
2022/06/08 09:19:29;;;;;;;7.85;2.38;;;;;;;28.66;18.23;99583.75;5033946;28;20054;-74
2022/06/08 09:21:59;;;;;;;10.82;2.95;;;;;;;28.47;18.44;99587.00;5024168;28;20092;-73
2022/06/08 09:24:31;;;;;;;5.88;2.20;;;;;;;28.84;17.60;99585.75;5026543;28;20060;-73
2022/06/08 09:27:13;;;;;;;8.15;1.92;;;;;;;29.07;17.02;99585.28;5032931;28;20049;-74
2022/06/08 09:29:48;;;;;;;10.40;2.28;;;;;;;29.16;17.12;99582.03;5044875;28;20045;-73
2022/06/08 09:32:26;;;;;;;10.18;2.25;;;;;;;30.07;17.08;99573.94;5045178;28;20057;-74
2022/06/08 09:34:55;;;;;;;8.05;2.30;;;;;;;30.66;16.50;99572.25;5044166;28;20049;-74
2022/06/08 09:37:26;;;;;;;7.00;2.00;;;;;;;31.11;16.10;99571.31;5047302;28;20432;-74
2022/06/08 09:39:54;;;;;;;10.70;2.53;;;;;;;31.12;16.14;99574.97;5037786;28;20063;-73
2022/06/08 09:42:39;;;;;;;8.60;2.10;;;;;;;30.75;16.59;99556.81;5025251;28;20056;-72
2022/06/08 09:45:22;;;;;;;10.00;2.25;;;;;;;30.84;16.86;99568.44;5042053;28;20467;-73
2022/06/08 09:53:44;;;;;;;9.77;2.30;;;;;;;31.01;14.77;99566.63;5029340;28;20080;-73
2022/06/08 09:56:19;;;;;;;11.55;2.65;;;;;;;31.28;13.79;99574.38;5045939;28;20084;-73
2022/06/08 09:59:00;;;;;;;7.25;2.20;;;;;;;31.62;14.43;99562.25;5048997;28;20504;-73
2022/06/08 10:01:32;;;;;;;10.65;2.20;;;;;;;32.01;14.29;99564.91;5047791;28;20141;-73
2022/06/08 10:04:37;;;;;;;12.88;2.63;;;;;;;32.60;13.65;99563.50;5048906;28;20550;-73
2022/06/08 10:07:14;;;;;;;7.35;2.22;;;;;;;32.54;13.89;99571.69;5038980;28;20068;-70
2022/06/08 10:09:54;;;;;;;8.02;2.10;;;;;;;33.00;13.64;99574.09;5049790;28;20056;-70
2022/06/08 10:12:32;;;;;;;14.13;2.55;;;;;;;33.32;13.57;99561.28;5050694;28;20526;-70
2022/06/08 10:15:02;;;;;;;7.80;2.40;;;;;;;33.34;13.28;99569.38;5048884;28;20079;-68
2022/06/08 10:17:36;;;;;;;6.95;2.53;;;;;;;33.33;13.83;99554.41;5048172;28;20107;-70
2022/06/08 10:20:11;;;;;;;8.32;2.53;;;;;;;32.94;14.65;99554.00;5049357;28;20087;-71
2022/06/08 10:22:43;;;;;;;10.90;2.53;;;;;;;33.03;14.39;99556.25;5047916;28;20523;-71
2022/06/08 10:25:16;;;;;;;8.13;2.20;;;;;;;33.32;13.83;99557.69;5040068;28;20552;-70
2022/06/08 10:27:48;;;;;;;8.60;2.28;;;;;;;33.93;13.90;99547.78;5029248;28;20057;-70
2022/06/08 10:30:19;;;;;;;10.57;2.50;;;;;;;34.27;13.25;99547.84;5029110;28;20072;-70
2022/06/08 10:32:52;;;;;;;10.63;2.70;;;;;;;34.64;12.68;99543.59;5010354;28;20061;-70
2022/06/08 10:35:27;;;;;;;12.52;2.65;;;;;;;34.59;12.62;99529.19;5025512;28;20187;-69
2022/06/08 10:37:54;;;;;;;16.10;2.83;;;;;;;34.64;12.51;99535.06;5027694;28;20049;-71
2022/06/08 10:40:24;;;;;;;15.00;3.53;;;;;;;34.75;12.45;99534.00;5009792;28;20468;-69
2022/06/08 10:42:52;;;;;;;10.32;2.65;;;;;;;34.65;12.58;99538.72;5028744;28;20046;-70
2022/06/08 10:45:52;;;;;;;12.80;2.95;;;;;;;34.49;12.13;99533.84;5028738;28;20469;-71
2022/06/08 10:48:41;;;;;;;12.02;3.42;;;;;;;34.78;11.61;99542.41;5028255;28;20227;-70
2022/06/08 10:51:31;;;;;;;16.42;3.10;;;;;;;35.08;11.55;99547.31;5028110;28;20430;-70
2022/06/08 10:56:51;;;;;;;9.35;3.00;;;;;;;35.84;10.99;99539.31;5028669;28;20053;-71
2022/06/08 10:59:19;;;;;;;13.88;3.00;;;;;;;35.48;11.66;99533.50;5026919;28;20194;-70
2022/06/08 11:01:55;;;;;;;14.40;3.30;;;;;;;35.32;12.10;99527.91;5025738;28;20562;-71
2022/06/08 11:04:43;;;;;;;14.07;3.30;;;;;;;35.69;11.48;99531.25;5009054;28;20054;-70
2022/06/08 11:07:11;;;;;;;12.70;3.10;;;;;;;35.81;11.31;99523.94;5027068;28;20052;-70
2022/06/08 11:09:55;;;;;;;13.93;3.03;;;;;;;36.06;11.07;99516.66;5025105;28;20191;-69
2022/06/08 11:12:58;;;;;;;10.70;3.00;;;;;;;36.47;11.06;99528.25;5026464;28;20148;-71
2022/06/08 11:15:41;;;;;;;9.05;2.80;;;;;;;36.99;10.75;99523.13;5027137;28;20081;-70
2022/06/08 11:18:17;;;;;;;16.80;3.75;;;;;;;36.39;11.26;99527.72;5026222;28;20076;-71
2022/06/08 11:20:48;;;;;;;16.08;3.38;;;;;;;36.08;11.70;99517.00;5027215;28;20046;-71
2022/06/08 11:23:21;;;;;;;14.48;3.88;;;;;;;36.05;11.44;99515.84;5027031;28;20739;-70
2022/06/08 11:25:49;;;;;;;24.08;3.60;;;;;;;35.89;11.39;99518.81;5028011;28;20107;-70
2022/06/08 11:28:32;;;;;;;34.35;4.30;;;;;;;35.95;11.49;99519.84;5026059;28;20057;-70
2022/06/08 11:31:00;;;;;;;10.15;3.28;;;;;;;35.75;11.85;99526.59;5010326;28;20049;-70
2022/06/08 11:34:08;;;;;;;12.60;3.10;;;;;;;35.30;12.20;99527.56;5047948;28;20062;-69
2022/06/08 11:36:49;;;;;;;9.48;3.47;;;;;;;34.82;12.19;99513.94;4998664;28;20419;-71
2022/06/08 11:39:25;;;;;;;15.63;3.17;;;;;;;34.62;12.67;99520.53;5048843;28;20049;-70
2022/06/08 11:41:59;;;;;;;;;;;;;;;34.82;12.63;99515.97;5067890;28;20369;-70
2022/06/08 11:44:31;;;;;;;17.08;3.78;;;;;;;34.13;13.24;99506.44;5066814;28;19924;-70
2022/06/08 11:47:11;;;;;;;15.30;3.55;;;;;;;34.10;13.19;99513.00;5066154;28;20048;-70
2022/06/08 11:49:39;;;;;;;15.65;3.53;;;;;;;35.20;12.48;99513.22;5048835;28;20133;-70
2022/06/08 11:52:23;;;;;;;22.52;3.67;;;;;;;35.43;11.60;99496.31;5049939;28;20048;-70
2022/06/08 11:55:05;;;;;;;15.82;3.40;;;;;;;35.61;11.86;99518.53;5049041;28;20055;-71
2022/06/08 11:57:32;;;;;;;12.35;3.80;;;;;;;36.02;12.16;99510.28;5033706;28;20568;-70
2022/06/08 12:00:00;;;;;;;24.52;4.13;;;;;;;36.72;11.92;99523.75;5049988;28;20456;-70
2022/06/08 12:02:35;;;;;;;19.23;4.28;;;;;;;36.69;11.40;99508.38;5067178;28;20123;-70
2022/06/08 12:05:04;;;;;;;23.42;3.75;;;;;;;36.53;11.20;99517.91;5055268;28;20052;-70